createdAt,value
2017-11-09T00:00:35.529Z,69.50
2017-11-09T00:01:42.922Z,69.60
2017-11-09T00:02:50.990Z,69.70
2017-11-09T00:03:58.753Z,69.70
2017-11-09T00:05:06.124Z,69.60
2017-11-09T00:06:13.386Z,69.70
2017-11-09T00:07:14.670Z,69.90
2017-11-09T00:08:15.984Z,69.80
2017-11-09T00:09:17.341Z,69.90
2017-11-09T00:10:18.640Z,70.60
2017-11-09T00:11:19.986Z,70.10
2017-11-09T00:12:21.274Z,70.00
2017-11-09T00:13:22.589Z,70.00
2017-11-09T00:14:24.214Z,70.00
2017-11-09T00:15:25.536Z,69.90
2017-11-09T00:16:26.876Z,69.90
2017-11-09T00:17:28.176Z,69.80
2017-11-09T00:18:30.241Z,70.40
2017-11-09T00:19:32.852Z,69.50
2017-11-09T00:20:34.180Z,69.40
2017-11-09T00:21:35.505Z,69.70
2017-11-09T00:22:36.787Z,69.60
2017-11-09T00:23:38.094Z,69.60
2017-11-09T00:24:39.408Z,69.50
2017-11-09T00:25:41.460Z,69.50
2017-11-09T00:26:43.518Z,69.50
2017-11-09T00:27:44.831Z,69.50
2017-11-09T00:28:46.897Z,69.30
2017-11-09T00:29:49.302Z,69.40
2017-11-09T00:30:50.621Z,69.40
2017-11-09T00:31:51.927Z,69.50
2017-11-09T00:32:53.302Z,69.70
2017-11-09T00:33:54.618Z,69.80
2017-11-09T00:34:56.932Z,70.10
2017-11-09T00:35:58.224Z,70.00
2017-11-09T00:37:00.257Z,70.20
2017-11-09T00:38:01.562Z,70.10
2017-11-09T00:39:03.011Z,70.10
2017-11-09T00:40:05.451Z,70.20
2017-11-09T00:41:06.759Z,70.20
2017-11-09T00:42:08.830Z,69.60
2017-11-09T00:43:10.146Z,69.60
2017-11-09T00:44:12.201Z,69.70
2017-11-09T00:45:14.496Z,69.60
2017-11-09T00:46:15.802Z,69.60
2017-11-09T00:47:17.858Z,69.50
2017-11-09T00:48:19.927Z,69.30
2017-11-09T00:49:21.235Z,69.30
2017-11-09T00:50:23.593Z,69.50
2017-11-09T00:51:24.875Z,69.50
2017-11-09T00:52:26.176Z,69.40
2017-11-09T00:53:28.225Z,69.30
2017-11-09T00:54:29.528Z,69.30
2017-11-09T00:55:31.862Z,69.50
2017-11-09T00:56:33.167Z,69.50
2017-11-09T00:57:35.226Z,69.50
2017-11-09T00:58:37.274Z,69.40
2017-11-09T00:59:38.661Z,69.40
2017-11-09T01:00:40.276Z,69.50
2017-11-09T01:01:42.317Z,70.10
2017-11-09T01:02:44.473Z,70.10
2017-11-09T01:03:46.525Z,70.30
2017-11-09T01:04:47.812Z,70.30
2017-11-09T01:05:49.437Z,70.40
2017-11-09T01:06:50.742Z,70.20
2017-11-09T01:07:52.038Z,70.30
2017-11-09T01:08:53.337Z,70.40
2017-11-09T01:09:54.642Z,70.00
2017-11-09T01:10:56.299Z,70.00
2017-11-09T01:11:57.590Z,69.90
2017-11-09T01:12:58.915Z,69.90
2017-11-09T01:14:00.246Z,69.90
2017-11-09T01:15:01.733Z,70.00
2017-11-09T01:16:03.473Z,70.20
2017-11-09T01:17:04.771Z,70.30
2017-11-09T01:18:06.096Z,70.20
2017-11-09T01:19:08.137Z,70.20
2017-11-09T01:20:10.173Z,70.10
2017-11-09T01:21:11.788Z,70.00
2017-11-09T01:22:13.088Z,70.10
2017-11-09T01:23:15.133Z,69.80
2017-11-09T01:24:17.185Z,69.80
2017-11-09T01:25:19.213Z,69.70
2017-11-09T01:26:20.949Z,69.70
2017-11-09T01:27:22.244Z,69.70
2017-11-09T01:28:23.541Z,69.70
2017-11-09T01:29:24.840Z,69.70
2017-11-09T01:30:26.169Z,69.60
2017-11-09T01:31:27.773Z,69.70
2017-11-09T01:32:29.086Z,69.70
2017-11-09T01:33:30.461Z,69.90
2017-11-09T01:34:32.509Z,69.90
2017-11-09T01:35:33.828Z,69.90
2017-11-09T01:36:35.165Z,70.00
2017-11-09T01:37:36.721Z,69.80
2017-11-09T01:38:38.050Z,69.60
2017-11-09T01:39:39.380Z,69.50
2017-11-09T01:40:40.677Z,69.60
2017-11-09T01:41:42.237Z,69.60
2017-11-09T01:42:43.579Z,69.70
2017-11-09T01:43:44.910Z,69.80
2017-11-09T01:44:46.217Z,69.70
2017-11-09T01:45:47.533Z,69.80
2017-11-09T01:46:50.156Z,69.90
2017-11-09T01:47:51.447Z,69.90
2017-11-09T01:48:53.528Z,69.70
2017-11-09T01:49:54.845Z,69.70
2017-11-09T01:50:56.886Z,69.60
2017-11-09T01:51:58.624Z,69.50
2017-11-09T01:52:59.933Z,69.60
2017-11-09T01:54:01.233Z,69.60
2017-11-09T01:55:03.309Z,69.80
2017-11-09T01:56:06.924Z,69.70
2017-11-09T01:57:08.658Z,69.80
2017-11-09T01:58:10.000Z,69.90
2017-11-09T01:59:12.100Z,69.90
2017-11-09T02:00:13.408Z,69.90
2017-11-09T02:01:14.742Z,70.10
2017-11-09T02:02:16.480Z,70.00
2017-11-09T02:03:17.787Z,70.00
2017-11-09T02:04:19.101Z,69.90
2017-11-09T02:05:20.413Z,69.90
2017-11-09T02:06:21.722Z,69.70
2017-11-09T02:07:23.369Z,69.90
2017-11-09T02:08:24.713Z,69.80
2017-11-09T02:09:26.049Z,69.90
2017-11-09T02:10:27.355Z,70.00
2017-11-09T02:11:29.412Z,69.80
2017-11-09T02:12:31.088Z,69.80
2017-11-09T02:13:32.417Z,69.80
2017-11-09T02:14:33.724Z,69.80
2017-11-09T02:15:35.772Z,69.80
2017-11-09T02:16:37.120Z,69.80
2017-11-09T02:17:39.500Z,69.60
2017-11-09T02:18:40.830Z,69.60
2017-11-09T02:19:42.886Z,70.00
2017-11-09T02:20:44.233Z,70.00
2017-11-09T02:21:45.578Z,69.90
2017-11-09T02:22:47.245Z,69.90
2017-11-09T02:23:48.593Z,70.00
2017-11-09T02:24:49.930Z,70.10
2017-11-09T02:25:51.277Z,70.10
2017-11-09T02:26:52.643Z,70.10
2017-11-09T02:27:55.162Z,70.20
2017-11-09T02:28:56.512Z,70.20
2017-11-09T02:29:57.836Z,70.00
2017-11-09T02:30:59.169Z,69.90
2017-11-09T02:32:00.499Z,69.80
2017-11-09T02:33:01.937Z,69.80
2017-11-09T02:34:03.354Z,69.70
2017-11-09T02:35:04.738Z,69.40
2017-11-09T02:36:06.813Z,69.40
2017-11-09T02:37:08.172Z,69.40
2017-11-09T02:38:09.794Z,69.70
2017-11-09T02:39:11.095Z,70.40
2017-11-09T02:40:12.417Z,69.70
2017-11-09T02:41:13.749Z,69.70
2017-11-09T02:42:15.812Z,69.80
2017-11-09T02:43:17.426Z,69.80
2017-11-09T02:44:18.762Z,69.80
2017-11-09T02:45:20.093Z,69.90
2017-11-09T02:46:21.457Z,69.90
2017-11-09T02:47:23.515Z,69.90
2017-11-09T02:48:25.920Z,70.00
2017-11-09T02:49:27.236Z,69.90
2017-11-09T02:50:28.564Z,70.00
2017-11-09T02:51:29.910Z,70.00
2017-11-09T02:52:31.255Z,70.10
2017-11-09T02:53:32.915Z,70.10
2017-11-09T02:54:34.210Z,70.20
2017-11-09T02:55:36.284Z,70.50
2017-11-09T02:56:37.633Z,70.40
2017-11-09T02:57:38.988Z,70.40
2017-11-09T02:58:40.466Z,70.40
2017-11-09T02:59:41.799Z,70.40
2017-11-09T03:00:43.140Z,70.40
2017-11-09T03:01:44.474Z,70.40
2017-11-09T03:02:45.798Z,70.30
2017-11-09T03:03:47.400Z,70.90
2017-11-09T03:04:48.691Z,70.20
2017-11-09T03:05:50.053Z,70.20
2017-11-09T03:06:52.109Z,70.20
2017-11-09T03:07:54.158Z,70.20
2017-11-09T03:08:56.678Z,70.90
2017-11-09T03:09:58.001Z,70.20
2017-11-09T03:10:59.321Z,70.40
2017-11-09T03:12:01.385Z,70.40
2017-11-09T03:13:02.700Z,70.40
2017-11-09T03:14:05.116Z,70.40
2017-11-09T03:15:06.428Z,70.40
2017-11-09T03:16:07.728Z,70.50
2017-11-09T03:17:09.032Z,70.60
2017-11-09T03:18:10.353Z,70.60
2017-11-09T03:19:11.936Z,70.40
2017-11-09T03:20:13.235Z,71.10
2017-11-09T03:21:14.537Z,70.10
2017-11-09T03:22:16.587Z,70.00
2017-11-09T03:23:18.649Z,69.90
2017-11-09T03:24:21.442Z,69.90
2017-11-09T03:25:22.769Z,69.80
2017-11-09T03:26:24.827Z,69.90
2017-11-09T03:27:26.129Z,69.90
2017-11-09T03:28:27.438Z,70.00
2017-11-09T03:29:29.017Z,70.10
2017-11-09T03:30:30.333Z,70.20
2017-11-09T03:31:31.651Z,70.30
2017-11-09T03:32:32.985Z,70.20
2017-11-09T03:33:34.304Z,70.50
2017-11-09T03:34:35.917Z,70.60
2017-11-09T03:35:37.226Z,70.50
2017-11-09T03:36:38.554Z,70.50
2017-11-09T03:37:39.875Z,70.40
2017-11-09T03:38:41.194Z,70.40
2017-11-09T03:39:42.784Z,70.40
2017-11-09T03:40:44.116Z,70.30
2017-11-09T03:41:45.432Z,70.10
2017-11-09T03:42:46.809Z,70.00
2017-11-09T03:43:48.118Z,70.00
2017-11-09T03:44:49.767Z,70.00
2017-11-09T03:45:51.082Z,70.10
2017-11-09T03:46:52.409Z,70.30
2017-11-09T03:47:53.738Z,70.30
2017-11-09T03:48:55.779Z,70.20
2017-11-09T03:49:57.352Z,70.10
2017-11-09T03:50:58.665Z,70.20
2017-11-09T03:52:00.697Z,70.30
2017-11-09T03:53:02.004Z,70.20
2017-11-09T03:54:03.420Z,70.20
2017-11-09T03:55:05.130Z,70.20
2017-11-09T03:56:11.037Z,70.40
2017-11-09T03:57:12.353Z,70.40
2017-11-09T03:58:13.663Z,70.40
2017-11-09T03:59:14.976Z,70.30
2017-11-09T04:00:16.656Z,70.40
2017-11-09T04:01:18.681Z,70.30
2017-11-09T04:02:20.024Z,70.30
2017-11-09T04:03:21.336Z,70.30
2017-11-09T04:04:22.641Z,70.40
2017-11-09T04:05:24.263Z,70.40
2017-11-09T04:06:26.334Z,70.20
2017-11-09T04:07:27.653Z,70.10
2017-11-09T04:08:29.698Z,70.00
2017-11-09T04:09:31.005Z,69.90
2017-11-09T04:10:32.634Z,69.90
2017-11-09T04:11:33.932Z,70.00
2017-11-09T04:12:35.982Z,70.10
2017-11-09T04:13:38.061Z,70.20
2017-11-09T04:14:39.362Z,70.10
2017-11-09T04:15:41.222Z,70.20
2017-11-09T04:16:42.562Z,70.10
2017-11-09T04:17:43.877Z,70.10
2017-11-09T04:18:45.177Z,70.60
2017-11-09T04:19:46.469Z,69.80
2017-11-09T04:20:48.041Z,69.90
2017-11-09T04:21:50.081Z,69.90
2017-11-09T04:22:52.148Z,70.10
2017-11-09T04:23:54.215Z,70.10
2017-11-09T04:24:55.519Z,70.10
2017-11-09T04:25:57.110Z,70.10
2017-11-09T04:26:58.409Z,70.10
2017-11-09T04:28:00.444Z,70.30
2017-11-09T04:29:01.737Z,70.20
2017-11-09T04:30:03.061Z,70.30
2017-11-09T04:31:04.821Z,70.50
2017-11-09T04:32:06.138Z,70.50
2017-11-09T04:33:08.225Z,70.50
2017-11-09T04:34:09.545Z,70.50
2017-11-09T04:35:10.885Z,70.30
2017-11-09T04:36:12.511Z,70.90
2017-11-09T04:37:14.565Z,70.00
2017-11-09T04:38:16.619Z,70.00
2017-11-09T04:39:18.672Z,70.10
2017-11-09T04:40:20.722Z,70.10
2017-11-09T04:41:23.038Z,70.20
2017-11-09T04:42:24.365Z,70.10
2017-11-09T04:43:25.709Z,70.00
2017-11-09T04:44:27.015Z,70.00
2017-11-09T04:45:29.058Z,70.20
2017-11-09T04:46:31.463Z,70.20
2017-11-09T04:47:32.756Z,70.10
2017-11-09T04:48:34.805Z,70.20
2017-11-09T04:49:36.114Z,70.20
2017-11-09T04:50:37.438Z,70.10
2017-11-09T04:51:39.088Z,70.00
2017-11-09T04:52:40.397Z,70.10
2017-11-09T04:53:41.697Z,70.00
2017-11-09T04:54:43.021Z,69.80
2017-11-09T04:55:44.317Z,69.70
2017-11-09T04:56:45.977Z,69.80
2017-11-09T04:57:47.279Z,69.80
2017-11-09T04:58:49.319Z,69.50
2017-11-09T04:59:51.352Z,69.70
2017-11-09T05:00:52.686Z,69.60
2017-11-09T05:01:54.293Z,69.60
2017-11-09T05:02:55.621Z,69.60
2017-11-09T05:03:56.930Z,69.70
2017-11-09T05:04:59.037Z,69.60
2017-11-09T05:06:00.371Z,69.60
2017-11-09T05:07:02.041Z,69.60
2017-11-09T05:08:03.353Z,69.50
2017-11-09T05:09:04.703Z,69.30
2017-11-09T05:11:13.100Z,69.30
2017-11-09T05:12:14.670Z,69.10
2017-11-09T05:13:15.979Z,68.90
2017-11-09T05:14:17.284Z,68.80
2017-11-09T05:15:19.334Z,68.50
2017-11-09T05:16:21.380Z,68.30
2017-11-09T05:17:23.002Z,68.30
2017-11-09T05:18:24.321Z,68.70
2017-11-09T05:19:25.624Z,68.30
2017-11-09T05:20:27.662Z,68.30
2017-11-09T05:21:29.729Z,68.40
2017-11-09T05:22:31.804Z,68.40
2017-11-09T05:23:33.122Z,68.40
2017-11-09T05:24:35.169Z,68.60
2017-11-09T05:25:37.218Z,68.70
2017-11-09T05:26:38.520Z,68.60
2017-11-09T05:27:40.714Z,68.40
2017-11-09T05:28:42.049Z,68.40
2017-11-09T05:29:43.356Z,68.40
2017-11-09T05:30:44.707Z,68.40
2017-11-09T05:31:46.021Z,68.40
2017-11-09T05:32:47.661Z,68.40
2017-11-09T05:33:48.969Z,68.40
2017-11-09T05:34:50.295Z,68.40
2017-11-09T05:35:52.387Z,68.90
2017-11-09T05:36:53.711Z,68.30
2017-11-09T05:37:55.069Z,68.30
2017-11-09T05:38:56.382Z,68.20
2017-11-09T05:39:57.692Z,68.10
2017-11-09T05:40:59.009Z,68.30
2017-11-09T05:42:00.338Z,68.50
2017-11-09T05:43:01.942Z,68.80
2017-11-09T05:44:03.276Z,69.10
2017-11-09T05:45:04.592Z,69.00
2017-11-09T05:46:05.908Z,69.20
2017-11-09T05:47:07.208Z,69.40
2017-11-09T05:48:08.537Z,69.60
2017-11-09T05:49:09.850Z,69.80
2017-11-09T05:50:11.929Z,69.80
2017-11-09T05:51:13.247Z,69.70
2017-11-09T05:52:15.297Z,69.50
2017-11-09T05:53:18.008Z,69.60
2017-11-09T05:54:19.305Z,69.60
2017-11-09T05:55:21.397Z,69.50
2017-11-09T05:56:22.733Z,69.40
2017-11-09T05:57:24.050Z,69.40
2017-11-09T05:58:26.546Z,69.30
2017-11-09T05:59:27.884Z,69.20
2017-11-09T06:00:29.242Z,69.20
2017-11-09T06:01:31.326Z,69.10
2017-11-09T06:02:32.663Z,69.00
2017-11-09T06:03:34.356Z,69.60
2017-11-09T06:04:35.683Z,68.80
2017-11-09T06:05:37.017Z,69.10
2017-11-09T06:06:38.355Z,69.40
2017-11-09T06:07:39.718Z,69.50
2017-11-09T06:08:41.093Z,69.50
2017-11-09T06:09:49.185Z,69.40
2017-11-09T06:10:50.500Z,69.40
2017-11-09T06:11:51.832Z,69.50
2017-11-09T06:12:53.155Z,69.60
2017-11-09T06:13:54.517Z,69.70
2017-11-09T06:14:55.836Z,69.90
2017-11-09T06:15:57.166Z,69.90
2017-11-09T06:16:58.507Z,69.90
2017-11-09T06:17:59.817Z,70.00
2017-11-09T06:19:01.907Z,70.30
2017-11-09T06:20:03.272Z,70.30
2017-11-09T06:21:04.649Z,70.40
2017-11-09T06:22:06.705Z,70.00
2017-11-09T06:23:09.061Z,70.00
2017-11-09T06:24:11.342Z,70.10
2017-11-09T06:25:12.670Z,70.00
2017-11-09T06:26:14.737Z,70.00
2017-11-09T06:27:16.073Z,70.10
2017-11-09T06:28:17.392Z,70.20
2017-11-09T06:29:19.479Z,70.30
2017-11-09T06:30:20.795Z,70.20
2017-11-09T06:31:22.856Z,70.10
2017-11-09T06:32:24.917Z,69.80
2017-11-09T06:33:26.230Z,69.80
2017-11-09T06:34:29.182Z,69.30
2017-11-09T06:35:30.513Z,69.20
2017-11-09T06:36:32.638Z,70.00
2017-11-09T06:37:33.931Z,70.00
2017-11-09T06:38:36.177Z,70.10
2017-11-09T06:39:37.760Z,70.10
2017-11-09T06:40:39.385Z,70.00
2017-11-09T06:41:41.825Z,70.00
2017-11-09T06:42:44.022Z,69.80
2017-11-09T06:43:46.147Z,69.80
2017-11-09T06:44:47.916Z,69.70
2017-11-09T06:45:50.090Z,69.70
2017-11-09T06:46:51.552Z,69.50
2017-11-09T06:47:52.961Z,69.50
2017-11-09T06:48:55.133Z,69.60
2017-11-09T06:49:56.997Z,69.50
2017-11-09T06:50:58.486Z,69.20
2017-11-09T06:51:59.946Z,68.90
2017-11-09T06:53:02.082Z,69.30
2017-11-09T06:54:04.106Z,69.20
2017-11-09T06:55:05.880Z,69.30
2017-11-09T06:56:07.260Z,69.30
2017-11-09T06:57:09.401Z,69.60
2017-11-09T06:58:13.154Z,69.50
2017-11-09T06:59:14.762Z,69.70
2017-11-09T07:00:16.539Z,69.90
2017-11-09T07:01:17.927Z,70.00
2017-11-09T07:02:20.008Z,69.70
2017-11-09T07:03:21.424Z,69.70
2017-11-09T07:04:22.860Z,69.60
2017-11-09T07:05:24.589Z,69.60
2017-11-09T07:06:26.117Z,69.70
2017-11-09T07:07:27.609Z,69.90
2017-11-09T07:08:29.773Z,70.70
2017-11-09T07:09:31.198Z,70.00
2017-11-09T07:10:33.589Z,70.40
2017-11-09T07:11:34.927Z,70.20
2017-11-09T07:12:36.271Z,70.30
2017-11-09T07:13:37.604Z,70.40
2017-11-09T07:14:38.968Z,70.30
2017-11-09T07:15:40.769Z,70.40
2017-11-09T07:16:42.841Z,70.20
2017-11-09T07:17:44.168Z,70.20
2017-11-09T07:18:46.226Z,70.00
2017-11-09T07:19:47.561Z,70.00
2017-11-09T07:20:49.649Z,70.00
2017-11-09T07:21:50.988Z,69.80
2017-11-09T07:22:52.300Z,69.70
2017-11-09T07:23:54.385Z,70.00
2017-11-09T07:24:55.677Z,69.90
2017-11-09T07:25:57.995Z,70.20
2017-11-09T07:26:59.339Z,70.10
2017-11-09T07:28:00.683Z,70.20
2017-11-09T07:29:02.015Z,70.50
2017-11-09T07:30:03.370Z,70.60
2017-11-09T07:31:04.744Z,70.60
2017-11-09T07:32:06.094Z,70.40
2017-11-09T07:33:07.437Z,70.40
2017-11-09T07:34:08.781Z,70.20
2017-11-09T07:35:10.126Z,70.10
2017-11-09T07:36:11.826Z,69.70
2017-11-09T07:37:13.889Z,69.80
2017-11-09T07:38:15.945Z,69.90
2017-11-09T07:39:17.266Z,69.80
2017-11-09T07:40:18.592Z,70.10
2017-11-09T07:41:19.931Z,69.80
2017-11-09T07:42:21.237Z,69.80
2017-11-09T07:43:22.554Z,69.20
2017-11-09T07:44:23.866Z,68.70
2017-11-09T07:45:25.936Z,68.70
2017-11-09T07:46:28.053Z,68.70
2017-11-09T07:47:29.357Z,68.60
2017-11-09T07:48:30.673Z,68.70
2017-11-09T07:49:31.976Z,68.60
2017-11-09T07:50:33.277Z,68.60
2017-11-09T07:51:34.761Z,68.60
2017-11-09T07:52:36.062Z,68.30
2017-11-09T07:53:38.139Z,68.60
2017-11-09T07:54:39.459Z,68.60
2017-11-09T07:55:40.774Z,68.70
2017-11-09T07:56:42.131Z,68.50
2017-11-09T07:57:43.454Z,68.20
2017-11-09T07:58:44.763Z,68.20
2017-11-09T07:59:46.817Z,68.30
2017-11-09T08:00:48.862Z,68.20
2017-11-09T08:01:51.227Z,68.00
2017-11-09T08:02:53.278Z,68.00
2017-11-09T08:03:55.326Z,68.10
2017-11-09T08:04:56.636Z,67.90
2017-11-09T08:05:57.971Z,68.50
2017-11-09T08:06:59.606Z,67.90
2017-11-09T08:08:00.968Z,67.80
2017-11-09T08:09:02.290Z,68.20
2017-11-09T08:10:03.638Z,68.50
2017-11-09T08:11:04.952Z,68.90
2017-11-09T08:12:06.612Z,68.90
2017-11-09T08:13:07.925Z,68.90
2017-11-09T08:14:09.308Z,68.90
2017-11-09T08:15:10.650Z,69.00
2017-11-09T08:16:11.963Z,69.00
2017-11-09T08:17:13.560Z,69.00
2017-11-09T08:18:15.606Z,69.00
2017-11-09T08:19:17.666Z,69.10
2017-11-09T08:20:19.768Z,69.10
2017-11-09T08:21:21.089Z,68.90
2017-11-09T08:22:22.753Z,68.90
2017-11-09T08:23:24.069Z,68.90
2017-11-09T08:24:27.697Z,69.50
2017-11-09T08:25:31.222Z,69.90
2017-11-09T08:26:34.253Z,68.90
2017-11-09T08:27:39.687Z,68.90
2017-11-09T08:28:46.750Z,68.90
2017-11-09T08:29:50.966Z,68.90
2017-11-09T08:30:52.912Z,69.40
2017-11-09T08:31:54.974Z,69.00
2017-11-09T08:32:58.051Z,68.60
2017-11-09T08:33:59.381Z,68.70
2017-11-09T08:35:00.712Z,69.10
2017-11-09T08:36:02.496Z,69.00
2017-11-09T08:37:03.838Z,69.30
2017-11-09T08:38:05.486Z,69.10
2017-11-09T08:39:06.821Z,69.10
2017-11-09T08:40:08.141Z,69.50
2017-11-09T08:41:09.450Z,69.80
2017-11-09T08:42:10.808Z,69.90
2017-11-09T08:43:12.424Z,70.10
2017-11-09T08:44:13.751Z,70.10
2017-11-09T08:45:15.821Z,70.30
2017-11-09T08:46:17.121Z,70.20
2017-11-09T08:47:18.442Z,70.30
2017-11-09T08:48:20.073Z,70.40
2017-11-09T08:49:21.390Z,70.00
2017-11-09T08:50:22.696Z,69.90
2017-11-09T08:51:24.750Z,69.80
2017-11-09T08:52:26.816Z,69.90
2017-11-09T08:53:28.184Z,69.90
2017-11-09T08:54:29.485Z,70.20
2017-11-09T08:55:31.553Z,69.50
2017-11-09T08:56:33.597Z,69.50
2017-11-09T08:57:35.661Z,69.90
2017-11-09T08:58:37.341Z,69.90
2017-11-09T08:59:38.655Z,70.00
2017-11-09T09:00:39.968Z,70.20
2017-11-09T09:01:42.020Z,70.40
2017-11-09T09:02:44.076Z,70.40
2017-11-09T09:03:47.536Z,70.50
2017-11-09T09:04:48.858Z,70.40
2017-11-09T09:05:50.174Z,70.90
2017-11-09T09:06:51.478Z,70.90
2017-11-09T09:07:52.809Z,71.30
2017-11-09T09:08:54.415Z,71.30
2017-11-09T09:09:55.756Z,71.20
2017-11-09T09:10:57.113Z,69.20
2017-11-09T09:11:58.449Z,67.10
2017-11-09T09:12:59.782Z,63.40
2017-11-09T09:14:01.329Z,62.20
2017-11-09T09:15:02.697Z,61.30
2017-11-09T09:16:05.010Z,61.70
2017-11-09T09:17:06.353Z,59.30
2017-11-09T09:18:08.436Z,57.60
2017-11-09T09:19:10.072Z,57.20
2017-11-09T09:20:11.413Z,57.80
2017-11-09T09:21:30.616Z,58.40
2017-11-09T09:22:37.050Z,58.70
2017-11-09T09:23:39.161Z,59.50
2017-11-09T09:24:41.311Z,59.30
2017-11-09T09:25:43.502Z,59.20
2017-11-09T09:26:45.839Z,58.00
2017-11-09T09:27:48.071Z,58.50
2017-11-09T09:28:52.321Z,59.10
2017-11-09T09:30:05.442Z,60.50
2017-11-09T09:31:08.717Z,58.10
2017-11-09T09:32:10.058Z,57.70
2017-11-09T09:33:14.105Z,57.30
2017-11-09T09:34:22.163Z,57.00
2017-11-09T09:35:39.738Z,56.90
2017-11-09T09:36:55.689Z,56.60
2017-11-09T09:38:04.518Z,56.50
2017-11-09T09:39:08.518Z,56.40
2017-11-09T09:40:12.033Z,56.80
2017-11-09T09:41:13.689Z,57.10
2017-11-09T09:42:15.047Z,57.80
2017-11-09T09:43:16.426Z,58.20
2017-11-09T09:44:17.771Z,57.70
2017-11-09T09:45:19.111Z,58.20
2017-11-09T09:46:20.523Z,58.20
2017-11-09T09:47:21.853Z,57.80
2017-11-09T09:48:23.199Z,58.30
2017-11-09T09:49:24.550Z,58.90
2017-11-09T09:50:26.633Z,57.70
2017-11-09T09:51:28.164Z,57.60
2017-11-09T09:52:29.466Z,58.20
2017-11-09T09:53:30.771Z,58.40
2017-11-09T09:54:32.124Z,58.00
2017-11-09T09:55:33.465Z,58.40
2017-11-09T09:56:34.815Z,58.40
2017-11-09T09:57:36.162Z,58.40
2017-11-09T09:58:38.229Z,58.50
2017-11-09T09:59:40.281Z,58.50
2017-11-09T10:00:42.357Z,58.10
2017-11-09T10:01:43.698Z,57.50
2017-11-09T10:02:45.009Z,57.60
2017-11-09T10:03:46.338Z,58.40
2017-11-09T10:04:47.710Z,57.30
2017-11-09T10:05:49.032Z,56.40
2017-11-09T10:06:50.938Z,56.00
2017-11-09T10:07:52.297Z,55.80
2017-11-09T10:08:54.416Z,53.80
2017-11-09T10:09:55.793Z,54.60
2017-11-09T10:10:57.102Z,54.70
2017-11-09T10:11:58.446Z,54.20
2017-11-09T10:12:59.764Z,54.90
2017-11-09T10:14:01.086Z,54.90
2017-11-09T10:15:02.459Z,54.80
2017-11-09T10:16:03.801Z,55.30
2017-11-09T10:17:05.457Z,56.20
2017-11-09T10:18:06.783Z,55.80
2017-11-09T10:19:08.118Z,56.30
2017-11-09T10:20:09.516Z,56.50
2017-11-09T10:21:11.567Z,55.60
2017-11-09T10:22:13.901Z,56.10
2017-11-09T10:23:15.209Z,56.10
2017-11-09T10:24:16.538Z,55.40
2017-11-09T10:25:17.838Z,55.10
2017-11-09T10:26:19.887Z,55.80
2017-11-09T10:27:21.240Z,55.80
2017-11-09T10:28:23.262Z,56.40
2017-11-09T10:29:24.598Z,56.30
2017-11-09T10:30:25.914Z,56.30
2017-11-09T10:31:27.259Z,55.60
2017-11-09T10:32:30.446Z,54.70
2017-11-09T10:33:31.762Z,54.60
2017-11-09T10:34:33.081Z,54.80
2017-11-09T10:35:34.399Z,54.70
2017-11-09T10:36:36.467Z,54.50
2017-11-09T10:37:38.555Z,54.80
2017-11-09T10:38:39.872Z,54.80
2017-11-09T10:39:41.235Z,54.80
2017-11-09T10:40:42.561Z,55.60
2017-11-09T10:41:43.862Z,56.20
2017-11-09T10:42:46.268Z,56.40
2017-11-09T10:43:47.593Z,56.40
2017-11-09T10:44:48.911Z,56.80
2017-11-09T10:45:50.974Z,56.70
2017-11-09T10:46:52.314Z,56.50
2017-11-09T10:47:53.672Z,55.30
2017-11-09T10:48:55.045Z,55.00
2017-11-09T10:49:56.393Z,54.90
2017-11-09T10:50:57.742Z,54.50
2017-11-09T10:51:59.089Z,54.70
2017-11-09T10:53:01.711Z,54.90
2017-11-09T10:54:03.062Z,54.80
2017-11-09T10:55:04.396Z,55.40
2017-11-09T10:56:05.728Z,55.90
2017-11-09T10:57:07.088Z,56.30
2017-11-09T10:58:08.457Z,55.80
2017-11-09T10:59:10.526Z,54.40
2017-11-09T11:00:11.877Z,54.30
2017-11-09T11:01:13.218Z,54.60
2017-11-09T11:02:16.528Z,54.40
2017-11-09T11:03:18.171Z,54.60
2017-11-09T11:04:20.221Z,54.70
2017-11-09T11:05:21.560Z,54.80
2017-11-09T11:06:22.881Z,55.00
2017-11-09T11:07:24.176Z,55.60
2017-11-09T11:08:26.598Z,54.80
2017-11-09T11:09:27.946Z,54.80
2017-11-09T11:10:29.998Z,56.00
2017-11-09T11:11:31.313Z,56.00
2017-11-09T11:12:32.614Z,56.20
2017-11-09T11:13:34.962Z,56.20
2017-11-09T11:14:36.276Z,56.10
2017-11-09T11:15:37.589Z,55.90
2017-11-09T11:16:38.892Z,55.30
2017-11-09T11:17:40.949Z,55.30
2017-11-09T11:18:42.298Z,55.30
2017-11-09T11:19:43.621Z,55.20
2017-11-09T11:20:45.678Z,55.60
2017-11-09T11:21:49.592Z,55.70
2017-11-09T11:22:50.933Z,55.60
2017-11-09T11:23:52.501Z,56.00
2017-11-09T11:24:53.813Z,55.70
2017-11-09T11:25:55.114Z,55.80
2017-11-09T11:26:56.437Z,55.20
2017-11-09T11:27:58.489Z,54.90
2017-11-09T11:29:00.117Z,54.90
2017-11-09T11:30:01.430Z,55.10
2017-11-09T11:31:02.777Z,54.80
2017-11-09T11:32:04.118Z,54.50
2017-11-09T11:33:05.444Z,53.80
2017-11-09T11:34:06.998Z,53.90
2017-11-09T11:35:08.335Z,54.70
2017-11-09T11:36:09.657Z,55.30
2017-11-09T11:37:12.954Z,55.50
2017-11-09T11:38:14.266Z,55.30
2017-11-09T11:39:16.590Z,55.00
2017-11-09T11:41:25.988Z,54.70
2017-11-09T11:42:27.317Z,55.20
2017-11-09T11:43:28.618Z,54.60
2017-11-09T11:44:30.220Z,54.90
2017-11-09T11:45:31.544Z,55.40
2017-11-09T11:46:32.858Z,55.40
2017-11-09T11:47:34.166Z,55.10
2017-11-09T11:48:35.479Z,55.30
2017-11-09T11:49:37.160Z,55.40
2017-11-09T11:50:38.461Z,55.50
2017-11-09T11:51:39.781Z,55.10
2017-11-09T11:52:41.086Z,54.90
2017-11-09T11:53:43.205Z,55.10
2017-11-09T11:54:44.819Z,55.30
2017-11-09T11:55:46.141Z,56.10
2017-11-09T11:56:47.482Z,55.90
2017-11-09T11:57:48.802Z,56.00
2017-11-09T11:58:50.851Z,56.30
2017-11-09T11:59:52.574Z,56.20
2017-11-09T12:00:53.904Z,56.40
2017-11-09T12:01:55.214Z,56.30
2017-11-09T12:02:58.321Z,56.30
2017-11-09T12:03:59.631Z,55.10
2017-11-09T12:05:01.294Z,54.20
2017-11-09T12:06:02.878Z,55.30
2017-11-09T12:07:04.682Z,55.70
2017-11-09T12:08:06.785Z,55.00
2017-11-09T12:09:12.466Z,54.80
2017-11-09T12:10:13.822Z,54.80
2017-11-09T12:11:15.137Z,54.90
2017-11-09T12:12:16.483Z,55.10
2017-11-09T12:13:17.807Z,55.50
2017-11-09T12:14:19.118Z,55.50
2017-11-09T12:15:21.212Z,55.60
2017-11-09T12:16:22.513Z,55.50
2017-11-09T12:17:24.569Z,55.10
2017-11-09T12:18:26.627Z,55.10
2017-11-09T12:19:28.673Z,54.50
2017-11-09T12:20:31.208Z,54.80
2017-11-09T12:21:32.538Z,54.70
2017-11-09T12:22:33.846Z,54.60
2017-11-09T12:23:35.159Z,54.80
2017-11-09T12:24:37.199Z,54.60
2017-11-09T12:25:38.544Z,54.60
2017-11-09T12:26:39.849Z,54.80
2017-11-09T12:27:41.921Z,55.50
2017-11-09T12:28:43.230Z,55.40
2017-11-09T12:29:44.565Z,56.00
2017-11-09T12:30:45.962Z,55.30
2017-11-09T12:31:48.082Z,55.20
2017-11-09T12:32:50.141Z,54.80
2017-11-09T12:33:51.451Z,54.60
2017-11-09T12:34:52.781Z,54.40
2017-11-09T12:35:54.441Z,54.20
2017-11-09T12:36:56.223Z,54.60
2017-11-09T12:37:58.310Z,55.20
2017-11-09T12:39:00.378Z,54.80
2017-11-09T12:40:01.678Z,54.70
2017-11-09T12:41:03.207Z,54.80
2017-11-09T12:42:04.523Z,55.00
2017-11-09T12:43:05.855Z,54.50
2017-11-09T12:44:07.217Z,54.00
2017-11-09T12:45:08.533Z,54.30
2017-11-09T12:46:10.306Z,53.90
2017-11-09T12:47:12.401Z,54.00
2017-11-09T12:48:14.485Z,54.30
2017-11-09T12:49:15.821Z,54.30
2017-11-09T12:50:17.130Z,54.90
2017-11-09T12:51:19.673Z,54.00
2017-11-09T12:52:20.985Z,53.90
2017-11-09T12:53:22.289Z,54.60
2017-11-09T12:54:23.625Z,54.30
2017-11-09T12:55:24.930Z,54.70
2017-11-09T12:56:26.744Z,54.80
2017-11-09T12:57:28.082Z,55.00
2017-11-09T12:58:29.410Z,55.40
2017-11-09T12:59:30.762Z,55.80
2017-11-09T13:00:32.118Z,55.90
2017-11-09T13:01:33.456Z,55.40
2017-11-09T13:02:34.774Z,55.00
2017-11-09T13:03:36.209Z,55.00
2017-11-09T13:04:38.334Z,55.40
2017-11-09T13:05:39.681Z,55.40
2017-11-09T13:06:41.354Z,55.50
2017-11-09T13:07:42.675Z,55.40
2017-11-09T13:08:43.975Z,55.30
2017-11-09T13:09:46.017Z,55.00
2017-11-09T13:10:47.341Z,55.00
2017-11-09T13:11:49.010Z,55.00
2017-11-09T13:12:51.070Z,55.30
2017-11-09T13:13:53.146Z,55.70
2017-11-09T13:14:54.489Z,55.70
2017-11-09T13:15:55.829Z,55.80
2017-11-09T13:16:57.298Z,55.90
2017-11-09T13:18:01.640Z,55.90